createdAt,value
2018-09-26T00:02:10.761Z,99.90
2018-09-26T00:04:43.554Z,99.90
2018-09-26T00:07:12.398Z,99.90
2018-09-26T00:09:41.198Z,99.90
2018-09-26T00:12:10.367Z,99.90
2018-09-26T00:14:38.864Z,99.90
2018-09-26T00:17:07.690Z,99.90
2018-09-26T00:19:36.184Z,99.90
2018-09-26T00:22:19.411Z,99.90
2018-09-26T00:24:47.913Z,99.90
2018-09-26T00:27:16.441Z,99.90
2018-09-26T00:29:45.193Z,99.90
2018-09-26T00:32:14.525Z,99.90
2018-09-26T00:34:43.361Z,99.90
2018-09-26T00:37:12.163Z,99.90
2018-09-26T00:39:41.013Z,99.90
2018-09-26T00:42:09.836Z,99.90
2018-09-26T00:44:38.676Z,99.90
2018-09-26T00:47:07.169Z,99.90
2018-09-26T00:49:36.012Z,99.90
2018-09-26T00:52:04.844Z,99.90
2018-09-26T00:54:33.672Z,99.90
2018-09-26T00:57:02.527Z,99.90
2018-09-26T00:59:31.019Z,99.90
2018-09-26T01:01:59.924Z,99.90
2018-09-26T01:04:28.754Z,99.90
2018-09-26T01:06:57.585Z,99.90
2018-09-26T01:09:26.465Z,99.90
2018-09-26T01:11:55.002Z,99.90
2018-09-26T01:14:23.845Z,99.90
2018-09-26T01:16:52.341Z,99.90
2018-09-26T01:19:21.078Z,99.90
2018-09-26T01:21:49.601Z,99.90
2018-09-26T01:24:18.096Z,99.90
2018-09-26T01:26:46.933Z,99.90
2018-09-26T01:29:15.478Z,99.90
2018-09-26T01:31:44.881Z,99.90
2018-09-26T01:34:13.701Z,99.90
2018-09-26T01:36:42.241Z,99.90
2018-09-26T01:39:11.041Z,99.90
2018-09-26T01:41:39.528Z,99.90
2018-09-26T01:44:08.377Z,99.90
2018-09-26T01:46:37.233Z,99.90
2018-09-26T01:49:05.788Z,99.90
2018-09-26T01:51:34.332Z,99.90
2018-09-26T01:54:02.856Z,99.90
2018-09-26T01:56:31.358Z,99.90
2018-09-26T01:58:59.841Z,99.90
2018-09-26T02:01:28.655Z,99.90
2018-09-26T02:03:57.156Z,99.90
2018-09-26T02:06:25.660Z,99.90
2018-09-26T02:08:54.457Z,99.90
2018-09-26T02:11:22.956Z,99.90
2018-09-26T02:13:51.446Z,99.90
2018-09-26T02:16:20.264Z,99.90
2018-09-26T02:18:49.113Z,99.90
2018-09-26T02:21:17.930Z,99.90
2018-09-26T02:23:46.806Z,99.90
2018-09-26T02:26:15.426Z,99.90
2018-09-26T02:28:44.269Z,99.90
2018-09-26T02:31:12.928Z,99.90
2018-09-26T02:33:41.433Z,99.90
2018-09-26T02:36:09.917Z,99.90
2018-09-26T02:38:38.764Z,99.90
2018-09-26T02:41:07.321Z,99.90
2018-09-26T02:43:36.135Z,99.90
2018-09-26T02:46:05.335Z,99.90
2018-09-26T02:48:39.321Z,99.90
2018-09-26T02:51:09.068Z,99.90
2018-09-26T02:53:37.824Z,99.90
2018-09-26T02:56:06.344Z,99.90
2018-09-26T02:58:34.925Z,99.90
2018-09-26T03:01:04.086Z,99.90
2018-09-26T03:03:32.581Z,99.90
2018-09-26T03:06:01.073Z,99.90
2018-09-26T03:08:29.697Z,99.90
2018-09-26T03:10:58.452Z,99.90
2018-09-26T03:13:27.081Z,99.90
2018-09-26T03:15:55.593Z,99.90
2018-09-26T03:18:24.399Z,99.90
2018-09-26T03:20:53.248Z,99.90
2018-09-26T03:23:22.065Z,99.90
2018-09-26T03:25:50.567Z,99.90
2018-09-26T03:28:19.048Z,99.90
2018-09-26T03:30:47.530Z,99.90
2018-09-26T03:33:16.332Z,99.90
2018-09-26T03:35:45.147Z,99.90
2018-09-26T03:38:13.667Z,99.90
2018-09-26T03:40:42.172Z,99.90
2018-09-26T03:43:10.664Z,99.90
2018-09-26T03:45:39.462Z,99.90
2018-09-26T03:48:08.287Z,99.90
2018-09-26T03:50:36.757Z,99.90
2018-09-26T03:53:05.523Z,99.90
2018-09-26T03:55:34.331Z,99.90
2018-09-26T03:58:02.842Z,99.90
2018-09-26T04:00:31.924Z,99.90
2018-09-26T04:03:00.723Z,99.90
2018-09-26T04:05:29.536Z,99.90
2018-09-26T04:07:58.368Z,99.90
2018-09-26T04:10:26.836Z,99.90
2018-09-26T04:12:55.343Z,99.90
2018-09-26T04:15:24.009Z,99.90
2018-09-26T04:17:52.510Z,99.90
2018-09-26T04:20:21.823Z,99.90
2018-09-26T04:22:50.793Z,99.90
2018-09-26T04:25:19.714Z,99.90
2018-09-26T04:27:48.606Z,99.90
2018-09-26T04:30:17.292Z,99.90
2018-09-26T04:32:46.470Z,99.90
2018-09-26T04:35:16.103Z,99.90
2018-09-26T04:37:44.594Z,99.90
2018-09-26T04:40:14.427Z,99.90
2018-09-26T04:42:42.904Z,99.90
2018-09-26T04:45:11.735Z,99.90
2018-09-26T04:47:40.979Z,99.90
2018-09-26T04:50:09.793Z,99.90
2018-09-26T04:52:38.731Z,99.90
2018-09-26T04:55:11.630Z,99.90
2018-09-26T04:57:40.183Z,99.90
2018-09-26T05:00:09.214Z,99.90
2018-09-26T05:02:38.396Z,99.90
2018-09-26T05:05:07.272Z,99.90
2018-09-26T05:07:36.411Z,99.90
2018-09-26T05:10:05.358Z,99.90
2018-09-26T05:12:34.204Z,99.90
2018-09-26T05:15:03.093Z,99.90
2018-09-26T05:17:31.930Z,99.90
2018-09-26T05:20:00.404Z,99.90
2018-09-26T05:22:28.920Z,99.90
2018-09-26T05:24:57.731Z,99.90
2018-09-26T05:27:26.212Z,99.90
2018-09-26T05:29:54.720Z,99.90
2018-09-26T05:32:23.552Z,99.90
2018-09-26T05:34:52.381Z,99.90
2018-09-26T05:37:20.851Z,99.90
2018-09-26T05:39:49.361Z,99.90
2018-09-26T05:42:17.862Z,99.90
2018-09-26T05:44:46.383Z,99.90
2018-09-26T05:47:14.869Z,99.90
2018-09-26T05:49:43.740Z,99.90
2018-09-26T05:52:12.272Z,99.90
2018-09-26T05:54:40.760Z,99.90
2018-09-26T05:57:09.828Z,99.90
2018-09-26T05:59:38.358Z,99.90
2018-09-26T06:02:07.670Z,99.90
2018-09-26T06:04:36.209Z,99.90
2018-09-26T06:07:05.396Z,99.90
2018-09-26T06:09:37.142Z,99.90
2018-09-26T06:12:05.953Z,99.90
2018-09-26T06:14:34.804Z,99.90
2018-09-26T06:17:03.972Z,99.90
2018-09-26T06:19:32.805Z,99.90
2018-09-26T06:22:01.664Z,99.90
2018-09-26T06:24:30.161Z,99.90
2018-09-26T06:26:58.640Z,99.90
2018-09-26T06:29:27.128Z,99.90
2018-09-26T06:31:55.963Z,99.90
2018-09-26T06:34:24.781Z,99.90
2018-09-26T06:36:53.650Z,99.90
2018-09-26T06:39:22.628Z,99.90
2018-09-26T06:41:51.459Z,99.90
2018-09-26T06:44:19.977Z,99.90
2018-09-26T06:46:49.130Z,99.90
2018-09-26T06:49:17.980Z,99.90
2018-09-26T06:51:47.432Z,99.90
2018-09-26T06:54:15.904Z,99.90
2018-09-26T06:56:44.729Z,99.90
2018-09-26T06:59:13.746Z,99.90
2018-09-26T07:01:42.305Z,99.90
2018-09-26T07:04:11.161Z,99.90
2018-09-26T07:06:40.327Z,99.90
2018-09-26T07:09:09.756Z,99.90
2018-09-26T07:11:38.617Z,99.90
2018-09-26T07:14:07.223Z,99.90
2018-09-26T07:16:36.028Z,99.90
2018-09-26T07:19:04.888Z,99.90
2018-09-26T07:21:33.691Z,99.90
2018-09-26T07:24:02.578Z,99.90
2018-09-26T07:26:31.589Z,99.90
2018-09-26T07:29:00.401Z,99.90
2018-09-26T07:31:29.607Z,99.90
2018-09-26T07:33:59.326Z,99.90
2018-09-26T07:36:28.295Z,99.90
2018-09-26T07:38:56.752Z,99.90
2018-09-26T07:41:25.558Z,99.90
2018-09-26T07:43:55.400Z,99.90
2018-09-26T07:46:23.907Z,99.90
2018-09-26T07:48:52.393Z,99.90
2018-09-26T07:51:21.204Z,99.90
2018-09-26T07:53:49.680Z,99.90
2018-09-26T07:56:18.490Z,99.90
2018-09-26T07:58:46.976Z,99.90
2018-09-26T08:01:15.448Z,99.90
2018-09-26T08:03:43.993Z,99.90
2018-09-26T08:06:12.820Z,99.90
2018-09-26T08:08:41.649Z,99.90
2018-09-26T08:11:10.828Z,99.90
2018-09-26T08:13:39.521Z,99.90
2018-09-26T08:16:08.665Z,99.90
2018-09-26T08:18:37.260Z,99.90
2018-09-26T08:21:06.841Z,99.60
2018-09-26T08:23:35.334Z,98.90
2018-09-26T08:26:04.144Z,98.30
2018-09-26T08:28:32.997Z,97.70
2018-09-26T08:31:02.180Z,97.30
2018-09-26T08:33:31.460Z,97.10
2018-09-26T08:35:59.956Z,96.60
2018-09-26T08:38:28.464Z,96.40
2018-09-26T08:40:56.958Z,96.00
2018-09-26T08:43:25.877Z,94.70
2018-09-26T08:45:55.684Z,94.00
2018-09-26T08:48:24.148Z,93.90
2018-09-26T08:50:53.125Z,93.10
2018-09-26T08:53:21.633Z,92.40
2018-09-26T08:55:50.437Z,91.70
2018-09-26T08:58:19.260Z,89.10
2018-09-26T09:00:51.994Z,88.70
2018-09-26T09:06:53.356Z,85.60
2018-09-26T09:09:22.177Z,83.20
2018-09-26T09:11:50.661Z,81.30
2018-09-26T09:14:19.541Z,76.90
2018-09-26T09:16:48.871Z,76.40
2018-09-26T09:19:18.003Z,76.80
2018-09-26T09:21:46.732Z,74.30
2018-09-26T09:24:15.558Z,71.80
2018-09-26T09:26:44.110Z,70.60
2018-09-26T09:29:12.616Z,67.30
2018-09-26T09:31:41.470Z,65.50
2018-09-26T09:34:09.953Z,61.40
2018-09-26T09:36:38.852Z,57.20
2018-09-26T09:39:08.512Z,56.30
2018-09-26T09:41:37.346Z,55.70
2018-09-26T09:44:05.937Z,53.20
2018-09-26T09:46:34.884Z,53.80
2018-09-26T09:49:03.735Z,52.30
2018-09-26T09:51:32.246Z,51.60
2018-09-26T09:54:01.496Z,51.80
2018-09-26T09:56:29.997Z,51.50
2018-09-26T09:58:59.186Z,51.30
2018-09-26T10:01:29.232Z,47.30
2018-09-26T10:03:59.363Z,47.20
2018-09-26T10:06:29.268Z,46.40
2018-09-26T10:08:59.009Z,46.20
2018-09-26T10:11:28.121Z,45.50
2018-09-26T10:13:57.864Z,45.70
2018-09-26T10:16:26.373Z,45.90
2018-09-26T10:18:55.201Z,45.50
2018-09-26T10:21:23.720Z,44.10
2018-09-26T10:23:52.475Z,44.20
2018-09-26T10:26:21.031Z,44.00
2018-09-26T10:28:49.662Z,44.00
2018-09-26T10:31:18.521Z,44.00
2018-09-26T10:33:47.020Z,43.00
2018-09-26T10:36:15.508Z,42.40
2018-09-26T10:38:44.381Z,43.10
2018-09-26T10:41:12.891Z,42.60
2018-09-26T10:43:42.045Z,42.80
2018-09-26T10:46:10.536Z,42.10
2018-09-26T10:48:39.048Z,41.20
2018-09-26T10:51:08.350Z,39.90
2018-09-26T10:53:37.203Z,40.90
2018-09-26T10:56:06.120Z,40.60
2018-09-26T10:58:34.789Z,40.30
2018-09-26T11:01:04.971Z,40.20
2018-09-26T11:03:34.038Z,39.80
2018-09-26T11:06:03.169Z,40.60
2018-09-26T11:08:33.022Z,39.00
2018-09-26T11:11:01.646Z,39.20
2018-09-26T11:13:30.169Z,40.10
2018-09-26T11:15:58.685Z,39.80
2018-09-26T11:18:27.288Z,39.60
2018-09-26T11:20:56.873Z,40.00
2018-09-26T11:23:25.749Z,40.20
2018-09-26T11:25:54.638Z,39.50
2018-09-26T11:28:23.215Z,39.10
2018-09-26T11:30:52.200Z,38.50
2018-09-26T11:33:21.225Z,38.70
2018-09-26T11:35:49.750Z,39.00
2018-09-26T11:38:18.298Z,38.80
2018-09-26T11:40:47.405Z,38.00
2018-09-26T11:43:16.337Z,38.20
2018-09-26T11:45:45.816Z,38.70
2018-09-26T11:48:15.601Z,38.00
2018-09-26T11:50:44.814Z,38.00
2018-09-26T11:53:13.428Z,37.00
2018-09-26T11:55:42.733Z,37.70
2018-09-26T11:58:11.285Z,37.50
2018-09-26T12:00:39.924Z,36.40
2018-09-26T12:03:08.674Z,37.30
2018-09-26T12:05:37.660Z,37.70
2018-09-26T12:08:06.462Z,37.20
2018-09-26T12:10:35.195Z,37.40
2018-09-26T12:13:04.244Z,37.20
2018-09-26T12:15:32.723Z,36.30
2018-09-26T12:18:01.218Z,36.50
2018-09-26T12:20:29.788Z,37.50
2018-09-26T12:22:58.627Z,37.70
2018-09-26T12:25:27.161Z,37.70
2018-09-26T12:27:56.130Z,37.30
2018-09-26T12:30:26.076Z,37.50
2018-09-26T12:32:56.714Z,38.10
2018-09-26T12:35:25.839Z,37.70
2018-09-26T12:37:54.352Z,37.70
2018-09-26T12:40:23.268Z,37.90
2018-09-26T12:42:52.009Z,38.00
2018-09-26T12:45:21.053Z,38.60
2018-09-26T12:47:49.552Z,39.40
2018-09-26T12:50:18.082Z,39.50
2018-09-26T12:52:47.208Z,39.60
2018-09-26T12:55:16.388Z,40.00
2018-09-26T12:59:09.389Z,40.00
2018-09-26T13:01:38.228Z,39.90
2018-09-26T13:04:07.159Z,40.00
2018-09-26T13:06:36.910Z,39.90
2018-09-26T13:09:06.495Z,40.10
2018-09-26T13:11:35.436Z,40.20
2018-09-26T13:14:04.113Z,39.70
2018-09-26T13:16:32.779Z,39.50
2018-09-26T13:19:01.967Z,39.00
2018-09-26T13:21:30.700Z,39.50
2018-09-26T13:23:59.226Z,39.60
2018-09-26T13:26:28.058Z,39.40
2018-09-26T13:28:56.856Z,38.50
2018-09-26T13:31:25.382Z,37.80
2018-09-26T13:33:55.540Z,37.70
2018-09-26T13:36:24.777Z,38.20
2018-09-26T13:38:53.451Z,38.60
2018-09-26T13:41:22.414Z,37.60
2018-09-26T13:43:50.946Z,37.40
2018-09-26T13:46:19.875Z,38.10
2018-09-26T13:48:49.406Z,37.70
2018-09-26T13:51:18.881Z,38.00
2018-09-26T13:53:47.400Z,37.90
2018-09-26T13:56:17.061Z,38.00
2018-09-26T13:58:45.672Z,39.10
2018-09-26T14:01:14.244Z,38.80
2018-09-26T14:03:43.109Z,38.50
2018-09-26T14:06:11.969Z,38.80
2018-09-26T14:08:40.545Z,39.00
2018-09-26T14:11:09.822Z,39.80
2018-09-26T14:13:38.337Z,40.60
2018-09-26T14:16:07.238Z,41.10
2018-09-26T14:18:35.766Z,42.30
2018-09-26T14:21:04.934Z,42.20
2018-09-26T14:23:33.511Z,42.60
2018-09-26T14:26:02.525Z,42.50
2018-09-26T14:28:31.354Z,42.80
2018-09-26T14:30:59.844Z,43.70
2018-09-26T14:33:28.601Z,44.10
2018-09-26T14:36:13.956Z,44.70
2018-09-26T14:38:42.653Z,45.30
2018-09-26T14:41:11.734Z,45.20
2018-09-26T14:43:40.999Z,45.30
2018-09-26T14:46:09.662Z,45.90
2018-09-26T14:48:38.208Z,45.60
2018-09-26T14:51:08.719Z,45.70
2018-09-26T14:53:37.544Z,46.40
2018-09-26T14:56:06.438Z,46.30
2018-09-26T14:58:34.977Z,45.90
2018-09-26T15:01:03.967Z,46.20
2018-09-26T15:04:06.277Z,46.50
2018-09-26T15:06:34.959Z,47.00
2018-09-26T15:09:04.457Z,47.00
2018-09-26T15:11:32.992Z,47.10
2018-09-26T15:14:01.495Z,47.40
2018-09-26T15:16:30.778Z,47.10
2018-09-26T15:19:00.265Z,46.80
2018-09-26T15:21:38.736Z,46.70
2018-09-26T15:24:08.053Z,46.70
2018-09-26T15:26:37.600Z,46.80
2018-09-26T15:29:06.236Z,46.60
2018-09-26T15:31:35.897Z,47.00
2018-09-26T15:34:04.806Z,47.50
2018-09-26T15:36:33.459Z,46.20
2018-09-26T15:39:02.670Z,46.10
2018-09-26T15:41:31.525Z,46.20
2018-09-26T15:44:00.196Z,46.80
2018-09-26T15:46:29.318Z,46.80
2018-09-26T15:48:58.421Z,47.00
2018-09-26T15:51:27.590Z,47.60
2018-09-26T15:53:56.062Z,47.70
2018-09-26T15:56:25.285Z,47.90
2018-09-26T15:58:54.197Z,48.60
2018-09-26T16:01:23.008Z,49.10
2018-09-26T16:03:52.209Z,48.80
2018-09-26T16:09:24.187Z,49.00
2018-09-26T16:11:53.420Z,49.70
2018-09-26T16:14:22.763Z,49.90
2018-09-26T16:16:52.418Z,50.30
2018-09-26T16:19:38.126Z,50.40
2018-09-26T16:22:35.425Z,49.60
2018-09-26T16:25:06.089Z,49.90
2018-09-26T16:27:34.575Z,50.30
2018-09-26T16:30:03.486Z,50.70
2018-09-26T16:32:35.957Z,51.00
2018-09-26T16:35:04.574Z,52.00
2018-09-26T16:37:33.569Z,51.80
2018-09-26T16:40:02.884Z,52.20
2018-09-26T16:42:31.425Z,52.50
2018-09-26T16:44:59.964Z,53.10
2018-09-26T16:47:28.799Z,53.90
2018-09-26T16:49:57.338Z,54.10
2018-09-26T16:52:25.936Z,54.20
2018-09-26T16:54:54.966Z,54.80
2018-09-26T16:57:23.543Z,55.40
2018-09-26T16:59:53.732Z,55.30
2018-09-26T17:02:23.008Z,55.40
2018-09-26T17:04:52.038Z,55.70
2018-09-26T17:07:21.651Z,56.20
2018-09-26T17:09:50.169Z,56.40
2018-09-26T17:12:19.044Z,56.60
2018-09-26T17:14:48.381Z,56.90
2018-09-26T17:17:17.248Z,56.90
2018-09-26T17:19:46.170Z,56.30
2018-09-26T17:22:15.451Z,56.60
2018-09-26T17:24:44.117Z,57.60
2018-09-26T17:28:37.305Z,57.90
2018-09-26T17:31:06.412Z,58.40
2018-09-26T17:33:34.972Z,59.00
2018-09-26T17:36:03.479Z,59.40
2018-09-26T17:38:33.304Z,59.50
2018-09-26T17:41:02.520Z,60.00
2018-09-26T17:43:31.148Z,60.40
2018-09-26T17:46:02.897Z,61.00
2018-09-26T17:48:33.883Z,61.40
2018-09-26T17:51:03.136Z,61.70
2018-09-26T17:56:25.345Z,62.70
2018-09-26T17:58:55.726Z,63.60
2018-09-26T18:01:41.551Z,64.00
2018-09-26T18:04:15.707Z,63.90
2018-09-26T18:06:49.453Z,63.90
2018-09-26T18:09:22.552Z,64.90
2018-09-26T18:11:51.692Z,64.70
2018-09-26T18:14:20.215Z,64.50
2018-09-26T18:16:50.127Z,64.70
2018-09-26T18:19:18.620Z,65.00
2018-09-26T18:21:47.169Z,65.90
2018-09-26T18:24:15.739Z,67.00
2018-09-26T18:29:44.314Z,66.80
2018-09-26T18:32:13.949Z,66.70
2018-09-26T18:34:42.540Z,66.70
2018-09-26T18:37:13.335Z,66.90
2018-09-26T18:39:42.238Z,66.90
2018-09-26T18:42:13.295Z,66.90
2018-09-26T18:44:45.886Z,67.30
2018-09-26T18:47:15.845Z,67.40
2018-09-26T18:51:09.789Z,67.80
2018-09-26T18:53:38.455Z,67.90
2018-09-26T18:56:07.338Z,68.00
2018-09-26T18:58:35.865Z,68.50
2018-09-26T19:01:05.958Z,69.30
2018-09-26T19:03:34.483Z,69.80
2018-09-26T19:06:04.330Z,70.00
2018-09-26T19:08:33.195Z,70.30
2018-09-26T19:11:01.715Z,70.10
2018-09-26T19:13:30.246Z,70.10
2018-09-26T19:15:59.092Z,69.90
2018-09-26T19:18:28.044Z,69.90
2018-09-26T19:20:57.329Z,69.80
2018-09-26T19:23:25.952Z,70.00
2018-09-26T19:25:54.479Z,70.20
2018-09-26T19:28:22.990Z,70.40
2018-09-26T19:30:51.526Z,70.40
2018-09-26T19:33:20.047Z,70.60
2018-09-26T19:35:48.617Z,71.10
2018-09-26T19:38:17.177Z,71.40
2018-09-26T19:40:47.008Z,71.20
2018-09-26T19:43:18.916Z,71.00
2018-09-26T19:52:45.767Z,71.90
2018-09-26T19:55:15.007Z,73.10
2018-09-26T19:57:43.552Z,73.80
2018-09-26T20:00:12.035Z,74.10
2018-09-26T20:02:40.553Z,74.50
2018-09-26T20:05:11.685Z,74.20
2018-09-26T20:07:40.712Z,74.50
2018-09-26T20:10:10.451Z,75.10
2018-09-26T20:12:39.567Z,74.90
2018-09-26T20:15:09.199Z,75.20
2018-09-26T20:17:38.070Z,76.70
2018-09-26T20:20:06.644Z,77.20
2018-09-26T20:22:36.262Z,77.20
2018-09-26T20:25:13.650Z,79.00
2018-09-26T20:27:42.621Z,78.90
2018-09-26T20:30:12.405Z,78.70
2018-09-26T20:32:41.425Z,78.70
2018-09-26T20:35:10.060Z,79.40
2018-09-26T20:37:39.199Z,78.90
2018-09-26T20:40:08.145Z,77.70
2018-09-26T20:42:36.888Z,78.60
2018-09-26T20:45:05.764Z,78.30
2018-09-26T20:47:34.337Z,79.00
2018-09-26T20:50:12.678Z,79.30
2018-09-26T20:52:41.596Z,79.90
2018-09-26T20:55:10.972Z,79.60
2018-09-26T20:57:39.552Z,79.60
2018-09-26T21:00:08.762Z,80.10
2018-09-26T21:02:37.368Z,80.50
2018-09-26T21:05:05.940Z,81.10
2018-09-26T21:07:34.544Z,81.40
2018-09-26T21:10:03.480Z,81.80
2018-09-26T21:12:32.006Z,82.00
2018-09-26T21:15:17.887Z,82.00
2018-09-26T21:17:47.378Z,81.70
2018-09-26T21:20:16.924Z,82.40
2018-09-26T21:22:46.364Z,82.60
2018-09-26T21:25:15.249Z,82.50
2018-09-26T21:27:43.828Z,82.80
2018-09-26T21:30:12.696Z,82.20
2018-09-26T21:32:51.353Z,82.00
2018-09-26T21:35:20.204Z,82.00
2018-09-26T21:37:51.069Z,82.00
2018-09-26T21:40:21.237Z,81.90
2018-09-26T21:42:49.757Z,82.10
2018-09-26T21:45:18.946Z,82.00
2018-09-26T21:47:47.600Z,81.90
2018-09-26T21:50:16.189Z,81.80
2018-09-26T21:52:45.579Z,81.50
2018-09-26T21:55:15.203Z,81.20
2018-09-26T21:57:44.109Z,81.00
2018-09-26T22:00:13.206Z,80.80
2018-09-26T22:02:41.805Z,80.90
2018-09-26T22:05:10.821Z,81.10
2018-09-26T22:07:40.250Z,81.20
2018-09-26T22:10:09.630Z,81.10
2018-09-26T22:12:38.235Z,81.20
2018-09-26T22:15:28.341Z,81.20
2018-09-26T22:17:56.836Z,81.20
2018-09-26T22:20:26.098Z,81.40
2018-09-26T22:22:54.997Z,81.60
2018-09-26T22:25:24.052Z,81.70
2018-09-26T22:27:52.922Z,81.80
2018-09-26T22:30:21.515Z,81.70
2018-09-26T22:32:50.428Z,81.70
2018-09-26T22:35:19.074Z,82.00
2018-09-26T22:37:47.746Z,82.80
2018-09-26T22:40:16.999Z,82.30
2018-09-26T22:42:45.632Z,82.50
2018-09-26T22:45:14.540Z,82.70
2018-09-26T22:47:43.542Z,82.80
2018-09-26T22:50:12.704Z,83.20
2018-09-26T22:52:41.299Z,83.10
2018-09-26T22:55:09.907Z,83.30
2018-09-26T22:57:38.504Z,83.30
2018-09-26T23:00:08.083Z,83.80
2018-09-26T23:02:38.170Z,84.10
2018-09-26T23:07:55.257Z,84.10
2018-09-26T23:10:26.657Z,84.40
2018-09-26T23:12:57.088Z,84.00
2018-09-26T23:15:28.396Z,84.10
2018-09-26T23:17:56.989Z,84.50
2018-09-26T23:23:12.825Z,84.70
2018-09-26T23:25:42.222Z,84.60
2018-09-26T23:28:14.978Z,85.30
2018-09-26T23:30:46.191Z,85.10
2018-09-26T23:33:18.657Z,85.40
2018-09-26T23:35:47.196Z,85.70
2018-09-26T23:38:15.795Z,85.70
2018-09-26T23:40:45.377Z,85.90
2018-09-26T23:43:14.260Z,85.90
2018-09-26T23:45:43.039Z,85.80
2018-09-26T23:48:11.986Z,85.90
2018-09-26T23:50:41.463Z,86.10
2018-09-26T23:53:10.244Z,86.10
2018-09-26T23:55:40.100Z,86.30
2018-09-26T23:58:09.362Z,86.20
